createdAt,value
2024-03-12T00:01:38.342Z,99736.28
2024-03-12T00:04:09.368Z,99736.28
2024-03-12T00:06:43.563Z,99735.44
2024-03-12T00:09:13.285Z,99735.53
2024-03-12T00:11:43.780Z,99736.44
2024-03-12T00:14:15.651Z,99735.59
2024-03-12T00:16:46.272Z,99739.06
2024-03-12T00:19:18.515Z,99746.97
2024-03-12T00:21:50.949Z,99753.97
2024-03-12T00:24:20.782Z,99752.25
2024-03-12T00:26:51.353Z,99758.38
2024-03-12T00:29:21.189Z,99751.41
2024-03-12T00:31:52.599Z,99755.78
2024-03-12T00:34:22.411Z,99755.78
2024-03-12T00:36:54.761Z,99763.69
2024-03-12T00:39:25.398Z,99763.63
2024-03-12T00:41:55.694Z,99763.63
2024-03-12T00:44:25.921Z,99766.19
2024-03-12T00:46:58.531Z,99772.34
2024-03-12T00:49:31.958Z,99773.19
2024-03-12T00:52:05.099Z,99771.47
2024-03-12T00:54:37.184Z,99772.50
2024-03-12T00:57:08.205Z,99776.09
2024-03-12T00:59:38.532Z,99777.03
2024-03-12T01:02:08.443Z,99784.13
2024-03-12T01:04:38.330Z,99782.34
2024-03-12T01:07:12.300Z,99785.97
2024-03-12T01:09:43.198Z,99791.25
2024-03-12T01:12:13.002Z,99788.59
2024-03-12T01:14:42.976Z,99786.75
2024-03-12T01:17:12.804Z,99797.28
2024-03-12T01:19:42.901Z,99796.38
2024-03-12T01:22:16.013Z,99798.09
2024-03-12T01:24:46.760Z,99806.00
2024-03-12T01:27:16.584Z,99800.81
2024-03-12T01:29:49.590Z,99808.63
2024-03-12T01:32:21.687Z,99803.50
2024-03-12T01:34:51.587Z,99806.13
2024-03-12T01:37:25.850Z,99817.59
2024-03-12T01:39:56.424Z,99817.59
2024-03-12T01:42:26.229Z,99821.13
2024-03-12T01:44:56.534Z,99827.31
2024-03-12T01:47:26.454Z,99820.38
2024-03-12T01:49:56.249Z,99822.19
2024-03-12T01:52:30.495Z,99824.03
2024-03-12T01:55:00.421Z,99824.94
2024-03-12T01:57:30.220Z,99826.78
2024-03-12T01:59:59.952Z,99826.78
2024-03-12T02:02:27.153Z,99826.78
2024-03-12T02:04:57.868Z,99828.56
2024-03-12T02:07:30.903Z,99832.19
2024-03-12T02:10:04.675Z,99826.16
2024-03-12T02:12:34.840Z,99832.44
2024-03-12T02:15:06.330Z,99832.66
2024-03-12T02:17:36.292Z,99831.06
2024-03-12T02:20:09.687Z,99841.81
2024-03-12T02:22:42.044Z,99834.13
2024-03-12T02:25:14.822Z,99843.88
2024-03-12T02:27:44.611Z,99847.47
2024-03-12T02:30:15.045Z,99850.19
2024-03-12T02:32:47.460Z,99844.09
2024-03-12T02:35:18.124Z,99854.69
2024-03-12T02:37:48.241Z,99851.16
2024-03-12T02:40:21.955Z,99863.50
2024-03-12T02:42:51.768Z,99860.09
2024-03-12T02:45:22.756Z,99866.25
2024-03-12T02:47:52.597Z,99873.34
2024-03-12T02:50:23.241Z,99866.38
2024-03-12T02:52:52.976Z,99868.19
2024-03-12T02:55:25.517Z,99870.81
2024-03-12T02:57:55.336Z,99867.34
2024-03-12T03:00:25.358Z,99871.72
2024-03-12T03:02:55.916Z,99877.06
2024-03-12T03:05:25.963Z,99869.97
2024-03-12T03:07:56.107Z,99876.97
2024-03-12T03:10:28.510Z,99872.56
2024-03-12T03:12:58.485Z,99872.56
2024-03-12T03:15:28.352Z,99880.38
2024-03-12T03:17:58.300Z,99875.13
2024-03-12T03:20:28.231Z,99879.47
2024-03-12T03:22:58.014Z,99882.97
2024-03-12T03:25:30.536Z,99882.97
2024-03-12T03:28:00.358Z,99892.66
2024-03-12T03:30:30.293Z,99899.66
2024-03-12T03:32:57.588Z,99886.50
2024-03-12T03:35:27.413Z,99903.25
2024-03-12T03:37:57.709Z,99895.34
2024-03-12T03:40:30.303Z,99901.50
2024-03-12T03:43:00.057Z,99898.03
2024-03-12T03:45:29.931Z,99903.25
2024-03-12T03:47:59.998Z,99910.16
2024-03-12T03:50:29.949Z,99913.72
2024-03-12T03:52:59.907Z,99911.91
2024-03-12T03:55:32.409Z,99911.91
2024-03-12T03:58:02.351Z,99916.41
2024-03-12T04:00:37.051Z,99920.78
2024-03-12T04:03:08.034Z,99926.88
2024-03-12T04:05:37.851Z,99930.34
2024-03-12T04:08:09.005Z,99932.06
2024-03-12T04:10:43.744Z,99935.50
2024-03-12T04:13:15.794Z,99939.84
2024-03-12T04:15:46.602Z,99945.94
2024-03-12T04:18:20.327Z,99944.22
2024-03-12T04:20:50.282Z,99949.59
2024-03-12T04:23:20.014Z,99955.91
2024-03-12T04:25:54.552Z,99952.56
2024-03-12T04:28:24.271Z,99958.84
2024-03-12T04:30:54.063Z,99966.03
2024-03-12T04:33:25.588Z,99965.25
2024-03-12T04:35:56.899Z,99966.22
2024-03-12T04:38:27.163Z,99965.41
2024-03-12T04:41:00.203Z,99965.47
2024-03-12T04:43:29.962Z,99968.09
2024-03-12T04:45:59.817Z,99967.19
2024-03-12T04:48:29.613Z,99972.38
2024-03-12T04:50:59.440Z,99981.13
2024-03-12T04:53:29.593Z,99978.50
2024-03-12T04:56:01.940Z,99985.50
2024-03-12T04:58:32.807Z,99987.34
2024-03-12T05:01:03.022Z,99994.28
2024-03-12T05:03:36.008Z,99995.22
2024-03-12T05:06:06.489Z,99997.88
2024-03-12T05:08:36.218Z,99997.09
2024-03-12T05:11:19.441Z,100001.53
2024-03-12T05:13:49.737Z,100009.53
2024-03-12T05:16:34.261Z,100015.72
2024-03-12T05:19:12.856Z,100018.47
2024-03-12T05:21:52.610Z,100023.00
2024-03-12T05:24:28.447Z,100027.47
2024-03-12T05:27:17.122Z,100021.44
2024-03-12T05:29:59.638Z,100030.25
2024-03-12T05:32:55.552Z,100036.38
2024-03-12T05:35:32.807Z,100039.00
2024-03-12T05:38:12.140Z,100038.13
2024-03-12T05:40:58.178Z,100037.28
2024-03-12T05:43:42.962Z,100044.22
2024-03-12T05:46:25.226Z,100041.59
2024-03-12T05:48:55.188Z,100043.25
2024-03-12T05:51:27.704Z,100051.09
2024-03-12T05:53:59.669Z,100051.00
2024-03-12T05:56:30.715Z,100058.81
2024-03-12T05:59:03.082Z,100056.19
2024-03-12T06:01:33.013Z,100063.09
2024-03-12T06:04:04.486Z,100063.91
2024-03-12T06:06:35.448Z,100070.03
2024-03-12T06:09:05.234Z,100078.69
2024-03-12T06:11:36.150Z,100080.34
2024-03-12T06:14:08.705Z,100085.50
2024-03-12T06:16:38.519Z,100083.72
2024-03-12T06:19:08.410Z,100091.63
2024-03-12T06:21:38.315Z,100096.09
2024-03-12T06:24:09.780Z,100104.06
2024-03-12T06:26:40.110Z,100098.00
2024-03-12T06:29:15.312Z,100094.53
2024-03-12T06:31:46.372Z,100107.69
2024-03-12T06:34:17.535Z,100115.59
2024-03-12T06:36:47.613Z,100111.22
2024-03-12T06:39:19.206Z,100117.34
2024-03-12T06:41:53.027Z,100125.22
2024-03-12T06:44:27.051Z,100128.81
2024-03-12T06:46:56.918Z,100123.53
2024-03-12T06:49:26.996Z,100131.38
2024-03-12T06:51:56.887Z,100133.09
2024-03-12T06:54:27.989Z,100136.59
2024-03-12T06:56:58.049Z,100145.25
2024-03-12T06:59:32.114Z,100151.38
2024-03-12T07:02:01.957Z,100154.78
2024-03-12T07:04:36.366Z,100166.09
2024-03-12T07:07:07.596Z,100160.00
2024-03-12T07:09:39.397Z,100170.41
2024-03-12T07:12:10.407Z,100164.19
2024-03-12T07:14:46.865Z,100170.25
2024-03-12T07:17:17.478Z,100175.47
2024-03-12T07:19:48.910Z,100175.44
2024-03-12T07:22:19.004Z,100174.50
2024-03-12T07:24:49.238Z,100181.50
2024-03-12T07:27:19.686Z,100180.59
2024-03-12T07:29:52.092Z,100190.22
2024-03-12T07:32:22.025Z,100191.06
2024-03-12T07:34:51.799Z,100180.53
2024-03-12T07:37:22.323Z,100182.34
2024-03-12T07:39:52.138Z,100195.38
2024-03-12T07:42:22.679Z,100186.59
2024-03-12T07:44:55.169Z,100197.06
2024-03-12T07:47:25.593Z,100197.91
2024-03-12T07:49:55.863Z,100197.91
2024-03-12T07:52:26.105Z,100201.50
2024-03-12T07:54:56.586Z,100208.59
2024-03-12T07:57:27.861Z,100211.25
2024-03-12T08:00:00.725Z,100209.56
2024-03-12T08:02:31.486Z,100213.16
2024-03-12T08:05:01.303Z,100208.00
2024-03-12T08:07:31.564Z,100215.00
2024-03-12T08:10:06.798Z,100217.75
2024-03-12T08:12:38.568Z,100219.59
2024-03-12T08:15:14.585Z,100219.72
2024-03-12T08:17:47.836Z,100212.72
2024-03-12T08:20:19.627Z,100221.50
2024-03-12T08:22:49.657Z,100215.31
2024-03-12T08:25:21.912Z,100224.13
2024-03-12T08:27:52.218Z,100228.50
2024-03-12T08:30:24.637Z,100228.50
2024-03-12T08:32:54.464Z,100231.13
2024-03-12T08:35:24.309Z,100231.13
2024-03-12T08:37:54.225Z,100229.44
2024-03-12T08:40:24.038Z,100236.44
2024-03-12T08:43:01.888Z,100239.09
2024-03-12T08:45:37.089Z,100241.72
2024-03-12T08:48:07.644Z,100239.97
2024-03-12T08:50:37.487Z,100246.97
2024-03-12T08:53:07.628Z,100246.13
2024-03-12T08:55:39.252Z,100250.53
2024-03-12T08:58:09.379Z,100255.81
2024-03-12T09:00:44.633Z,100258.44
2024-03-12T09:03:17.359Z,100260.16
2024-03-12T09:05:47.212Z,100260.97
2024-03-12T09:08:20.065Z,100268.81
2024-03-12T09:10:51.471Z,100271.41
2024-03-12T09:13:21.633Z,100274.88
2024-03-12T09:15:54.041Z,100273.94
2024-03-12T09:18:27.137Z,100278.28
2024-03-12T09:20:58.031Z,100278.19
2024-03-12T09:23:30.623Z,100274.63
2024-03-12T09:26:01.300Z,100282.44
2024-03-12T09:28:31.153Z,100275.28
2024-03-12T09:31:07.705Z,100280.38
2024-03-12T09:33:37.550Z,100278.41
2024-03-12T09:36:08.038Z,100283.47
2024-03-12T09:38:37.830Z,100285.94
2024-03-12T09:41:09.634Z,100291.88
2024-03-12T09:43:40.455Z,100291.66
2024-03-12T09:46:13.144Z,100296.69
2024-03-12T09:48:44.090Z,100295.41
2024-03-12T09:51:14.044Z,100294.09
2024-03-12T09:53:46.421Z,100295.41
2024-03-12T09:56:18.344Z,100287.91
2024-03-12T09:58:49.492Z,100286.75
2024-03-12T10:01:24.424Z,100292.66
2024-03-12T10:03:57.316Z,100286.38
2024-03-12T10:06:27.332Z,100293.47
2024-03-12T10:09:01.197Z,100295.38
2024-03-12T10:11:31.122Z,100294.66
2024-03-12T10:14:05.563Z,100294.78
2024-03-12T10:16:41.717Z,100300.25
2024-03-12T10:19:16.207Z,100309.00
2024-03-12T10:21:47.395Z,100302.94
2024-03-12T10:24:19.177Z,100306.53
2024-03-12T10:26:49.418Z,100306.78
2024-03-12T10:29:20.732Z,100306.13
2024-03-12T10:31:53.039Z,100307.25
2024-03-12T10:34:22.998Z,100303.91
2024-03-12T10:36:53.414Z,100304.94
2024-03-12T10:39:33.783Z,100314.78
2024-03-12T10:42:05.334Z,100314.84
2024-03-12T10:44:37.974Z,100316.75
2024-03-12T10:47:12.316Z,100323.72
2024-03-12T10:49:44.946Z,100324.56
2024-03-12T10:52:15.818Z,100321.81
2024-03-12T10:55:02.186Z,100326.94
2024-03-12T10:57:36.009Z,100335.53
2024-03-12T11:00:09.627Z,100328.34
2024-03-12T11:02:43.935Z,100323.78
2024-03-12T11:05:13.867Z,100326.31
2024-03-12T11:07:46.052Z,100327.81
2024-03-12T11:10:16.549Z,100323.97
2024-03-12T11:12:46.716Z,100322.78
2024-03-12T11:15:17.237Z,100326.78
2024-03-12T11:17:53.288Z,100322.03
2024-03-12T11:20:28.119Z,100327.84
2024-03-12T11:23:02.115Z,100332.81
2024-03-12T11:25:36.625Z,100335.03
2024-03-12T11:28:22.595Z,100337.22
2024-03-12T11:31:03.177Z,100337.72
2024-03-12T11:33:56.052Z,100332.22
2024-03-12T11:36:30.676Z,100340.84
2024-03-12T11:39:02.764Z,100335.31
2024-03-12T11:42:07.222Z,100334.22
2024-03-12T11:44:50.628Z,100338.66
2024-03-12T11:47:36.466Z,100339.56
2024-03-12T11:50:36.078Z,100336.97
2024-03-12T11:53:19.647Z,100335.25
2024-03-12T11:55:59.407Z,100337.94
2024-03-12T11:58:34.180Z,100340.53
2024-03-12T12:01:04.597Z,100331.81
2024-03-12T12:03:36.134Z,100335.25
2024-03-12T12:06:11.152Z,100335.22
2024-03-12T12:08:49.611Z,100333.28
2024-03-12T12:11:23.702Z,100334.00
2024-03-12T12:14:00.573Z,100337.25
2024-03-12T12:16:31.607Z,100335.25
2024-03-12T12:19:07.598Z,100339.41
2024-03-12T12:21:40.557Z,100325.09
2024-03-12T12:24:12.470Z,100323.19
2024-03-12T12:26:42.452Z,100328.34
2024-03-12T12:29:13.864Z,100328.34
2024-03-12T12:31:43.900Z,100324.78
2024-03-12T12:34:14.276Z,100321.28
2024-03-12T12:36:51.410Z,100325.66
2024-03-12T12:39:25.004Z,100311.31
2024-03-12T12:42:00.740Z,100310.09
2024-03-12T12:44:31.564Z,100305.06
2024-03-12T12:47:04.331Z,100303.25
2024-03-12T12:49:36.567Z,100301.28
2024-03-12T12:52:09.245Z,100300.06
2024-03-12T12:54:42.490Z,100298.38
2024-03-12T12:57:14.261Z,100297.72
2024-03-12T12:59:44.045Z,100303.41
2024-03-12T13:02:19.998Z,100297.66
2024-03-12T13:04:49.970Z,100296.22
2024-03-12T13:07:34.416Z,100289.59
2024-03-12T13:10:16.384Z,100293.78
2024-03-12T13:12:46.440Z,100293.13
2024-03-12T13:15:35.671Z,100295.00
2024-03-12T13:18:06.072Z,100296.94
2024-03-12T13:20:35.858Z,100305.88
2024-03-12T13:23:09.916Z,100304.03
2024-03-12T13:25:39.694Z,100290.69
2024-03-12T13:28:09.969Z,100294.84
2024-03-12T13:30:41.750Z,100293.53
2024-03-12T13:33:11.995Z,100297.38
2024-03-12T13:35:43.646Z,100301.00
2024-03-12T13:38:17.032Z,100295.84
2024-03-12T13:40:47.724Z,100297.50
2024-03-12T13:43:17.684Z,100303.44
2024-03-12T13:45:49.956Z,100294.25
2024-03-12T13:48:19.756Z,100291.94
2024-03-12T13:50:53.293Z,100295.53
2024-03-12T13:53:28.420Z,100291.19
2024-03-12T13:56:01.683Z,100292.06
2024-03-12T13:58:31.617Z,100292.22
2024-03-12T14:01:02.556Z,100290.78
2024-03-12T14:03:33.556Z,100282.47
2024-03-12T14:06:03.939Z,100293.47
2024-03-12T14:08:36.338Z,100287.91
2024-03-12T14:11:06.467Z,100290.56
2024-03-12T14:13:36.710Z,100300.50
2024-03-12T14:16:11.147Z,100301.81
2024-03-12T14:18:44.056Z,100296.88
2024-03-12T14:21:14.269Z,100302.59
2024-03-12T14:23:48.935Z,100298.72
2024-03-12T14:26:19.483Z,100299.28
2024-03-12T14:28:49.485Z,100299.00
2024-03-12T14:31:19.800Z,100299.47
2024-03-12T14:33:50.023Z,100296.44
2024-03-12T14:36:21.004Z,100292.38
2024-03-12T14:38:55.137Z,100299.69
2024-03-12T14:41:25.270Z,100291.94
2024-03-12T14:43:55.060Z,100297.44
2024-03-12T14:46:24.962Z,100293.34
2024-03-12T14:48:56.352Z,100289.09
2024-03-12T14:51:28.122Z,100285.72
2024-03-12T14:54:00.462Z,100289.34
2024-03-12T14:56:30.236Z,100291.19
2024-03-12T14:59:00.082Z,100291.25
2024-03-12T15:01:29.875Z,100290.47
2024-03-12T15:04:01.484Z,100284.38
2024-03-12T15:06:31.428Z,100278.50
2024-03-12T15:09:05.081Z,100278.63
2024-03-12T15:11:35.398Z,100276.97
2024-03-12T15:14:07.556Z,100275.31
2024-03-12T15:16:37.910Z,100273.84
2024-03-12T15:19:07.993Z,100269.56
2024-03-12T15:21:38.780Z,100265.16
2024-03-12T15:24:11.535Z,100263.41
2024-03-12T15:26:41.331Z,100264.34
2024-03-12T15:29:11.169Z,100268.72
2024-03-12T15:31:41.847Z,100266.72
2024-03-12T15:34:11.664Z,100263.03
2024-03-12T15:36:43.114Z,100266.47
2024-03-12T15:39:16.146Z,100260.19
2024-03-12T15:41:45.909Z,100259.44
2024-03-12T15:44:18.714Z,100257.00
2024-03-12T15:46:51.220Z,100261.63
2024-03-12T15:49:21.856Z,100260.09
2024-03-12T15:51:53.408Z,100253.09
2024-03-12T15:54:26.370Z,100253.22
2024-03-12T15:56:58.016Z,100250.72
2024-03-12T15:59:27.842Z,100253.50
2024-03-12T16:01:57.957Z,100258.94
2024-03-12T16:04:28.815Z,100255.69
2024-03-12T16:06:58.621Z,100260.34
2024-03-12T16:09:30.979Z,100253.53
2024-03-12T16:12:01.324Z,100259.94
2024-03-12T16:14:31.270Z,100252.22
2024-03-12T16:17:01.151Z,100252.31
2024-03-12T16:19:32.489Z,100251.59
2024-03-12T16:22:02.366Z,100253.41
2024-03-12T16:24:34.837Z,100251.75
2024-03-12T16:27:05.278Z,100248.34
2024-03-12T16:29:36.422Z,100240.53
2024-03-12T16:32:11.783Z,100245.91
2024-03-12T16:34:41.555Z,100251.25
2024-03-12T16:37:11.439Z,100246.03
2024-03-12T16:39:43.910Z,100244.38
2024-03-12T16:42:14.295Z,100247.94
2024-03-12T16:44:44.171Z,100247.22
2024-03-12T16:47:14.108Z,100242.84
2024-03-12T16:49:43.863Z,100248.19
2024-03-12T16:52:15.581Z,100239.50
2024-03-12T16:54:48.872Z,100242.28
2024-03-12T16:57:19.079Z,100242.41
2024-03-12T16:59:53.443Z,100244.22
2024-03-12T17:02:23.268Z,100250.47
2024-03-12T17:04:57.748Z,100251.47
2024-03-12T17:07:28.598Z,100251.59
2024-03-12T17:10:02.254Z,100247.28
2024-03-12T17:12:35.326Z,100253.53
2024-03-12T17:15:06.317Z,100244.78
2024-03-12T17:17:37.717Z,100259.78
2024-03-12T17:20:10.937Z,100255.47
2024-03-12T17:22:43.753Z,100252.91
2024-03-12T17:25:18.598Z,100253.88
2024-03-12T17:27:50.640Z,100251.28
2024-03-12T17:30:21.950Z,100253.94
2024-03-12T17:32:52.519Z,100256.59
2024-03-12T17:35:23.203Z,100259.34
2024-03-12T17:37:57.205Z,100257.63
2024-03-12T17:40:30.368Z,100268.31
2024-03-12T17:43:01.953Z,100267.44
2024-03-12T17:45:33.046Z,100256.97
2024-03-12T17:48:05.991Z,100268.41
2024-03-12T17:50:36.705Z,100266.69
2024-03-12T17:53:08.017Z,100263.19
2024-03-12T17:55:44.128Z,100269.34
2024-03-12T17:58:17.729Z,100271.97
2024-03-12T18:00:48.991Z,100273.69
2024-03-12T18:03:21.100Z,100275.44
2024-03-12T18:05:52.399Z,100273.56
2024-03-12T18:08:26.830Z,100274.41
2024-03-12T18:11:01.638Z,100274.28
2024-03-12T18:13:32.127Z,100271.56
2024-03-12T18:16:04.681Z,100270.59
2024-03-12T18:18:37.109Z,100273.25
2024-03-12T18:21:08.404Z,100267.06
2024-03-12T18:23:38.397Z,100272.28
2024-03-12T18:26:11.169Z,100271.41
2024-03-12T18:28:45.802Z,100271.41
2024-03-12T18:31:16.890Z,100271.41
2024-03-12T18:33:50.013Z,100272.34
2024-03-12T18:36:21.198Z,100275.88
2024-03-12T18:38:51.574Z,100275.06
2024-03-12T18:41:25.013Z,100269.00
2024-03-12T18:43:55.832Z,100281.38
2024-03-12T18:46:26.162Z,100273.56
2024-03-12T18:48:58.564Z,100268.34
2024-03-12T18:51:30.524Z,100271.97
2024-03-12T18:54:03.652Z,100267.66
2024-03-12T18:56:40.048Z,100268.63
2024-03-12T18:59:11.562Z,100264.31
2024-03-12T19:01:43.686Z,100268.88
2024-03-12T19:04:14.181Z,100261.84
2024-03-12T19:06:45.825Z,100264.56
2024-03-12T19:09:20.938Z,100259.41
2024-03-12T19:11:54.172Z,100253.38
2024-03-12T19:14:24.676Z,100253.53
2024-03-12T19:16:55.752Z,100247.50
2024-03-12T19:19:30.489Z,100247.63
2024-03-12T19:22:02.513Z,100246.84
2024-03-12T19:24:33.894Z,100247.03
2024-03-12T19:27:09.623Z,100247.09
2024-03-12T19:29:42.210Z,100254.22
2024-03-12T19:32:16.750Z,100242.91
2024-03-12T19:34:47.470Z,100244.75
2024-03-12T19:37:17.693Z,100236.03
2024-03-12T19:39:49.216Z,100245.72
2024-03-12T19:42:22.484Z,100235.19
2024-03-12T19:44:54.203Z,100231.78
2024-03-12T19:47:29.906Z,100239.69
2024-03-12T19:50:01.844Z,100234.47
2024-03-12T19:52:33.841Z,100240.66
2024-03-12T19:55:04.127Z,100229.31
2024-03-12T19:57:36.910Z,100234.59
2024-03-12T20:00:13.622Z,100232.84
2024-03-12T20:02:43.830Z,100228.50
2024-03-12T20:05:13.651Z,100218.00
2024-03-12T20:07:45.749Z,100220.69
2024-03-12T20:10:17.420Z,100214.63
2024-03-12T20:12:55.695Z,100213.00
2024-03-12T20:15:26.251Z,100216.56
2024-03-12T20:17:56.462Z,100209.63
2024-03-12T20:20:26.571Z,100214.06
2024-03-12T20:22:56.938Z,100215.91
2024-03-12T20:25:27.765Z,100212.41
2024-03-12T20:28:01.496Z,100202.78
2024-03-12T20:30:32.168Z,100200.25
2024-03-12T20:33:03.048Z,100199.44
2024-03-12T20:35:33.671Z,100211.75
2024-03-12T20:38:03.820Z,100206.53
2024-03-12T20:40:40.869Z,100212.66
2024-03-12T20:43:13.541Z,100217.09
2024-03-12T20:45:46.557Z,100215.34
2024-03-12T20:48:17.181Z,100213.63
2024-03-12T20:50:47.391Z,100210.13
2024-03-12T20:53:18.881Z,100213.63
2024-03-12T20:55:49.273Z,100210.13
2024-03-12T20:58:21.674Z,100209.25
2024-03-12T21:00:52.521Z,100206.63
2024-03-12T21:03:22.750Z,100193.44
2024-03-12T21:05:52.996Z,100201.34
2024-03-12T21:08:22.799Z,100193.44
2024-03-12T21:10:52.708Z,100194.34
2024-03-12T21:13:25.720Z,100185.53
2024-03-12T21:15:55.596Z,100190.81
2024-03-12T21:18:27.978Z,100190.81
2024-03-12T21:20:57.893Z,100185.53
2024-03-12T21:23:27.758Z,100186.47
2024-03-12T21:25:57.473Z,100184.69
2024-03-12T21:28:30.799Z,100188.19
2024-03-12T21:31:00.712Z,100197.81
2024-03-12T21:33:30.752Z,100196.03
2024-03-12T21:36:01.032Z,100194.28
2024-03-12T21:38:30.789Z,100196.81
2024-03-12T21:41:01.660Z,100190.63
2024-03-12T21:43:34.064Z,100189.72
2024-03-12T21:46:06.285Z,100190.50
2024-03-12T21:48:36.142Z,100192.25
2024-03-12T21:51:06.756Z,100189.59
2024-03-12T21:53:36.617Z,100189.72
2024-03-12T21:56:08.613Z,100186.31
2024-03-12T21:58:43.754Z,100186.44
2024-03-12T22:01:13.962Z,100175.00
2024-03-12T22:03:44.151Z,100183.84
2024-03-12T22:06:15.501Z,100181.25
2024-03-12T22:08:45.639Z,100179.53
2024-03-12T22:11:15.859Z,100187.38
2024-03-12T22:13:50.868Z,100184.75
2024-03-12T22:16:20.798Z,100185.59
2024-03-12T22:18:50.655Z,100197.88
2024-03-12T22:21:23.885Z,100190.03
2024-03-12T22:23:55.008Z,100182.13
2024-03-12T22:26:25.368Z,100174.28
2024-03-12T22:28:58.297Z,100176.13
2024-03-12T22:31:28.125Z,100171.03
2024-03-12T22:33:57.989Z,100168.44
2024-03-12T22:36:27.739Z,100172.00
2024-03-12T22:38:58.065Z,100166.72
2024-03-12T22:41:28.594Z,100165.91
2024-03-12T22:44:01.704Z,100164.16
2024-03-12T22:46:31.894Z,100159.72
2024-03-12T22:49:03.998Z,100166.72
2024-03-12T22:51:33.790Z,100166.69
2024-03-12T22:54:03.823Z,100157.00
2024-03-12T22:56:34.224Z,100152.53
2024-03-12T22:59:07.810Z,100162.13
2024-03-12T23:01:41.146Z,100159.47
2024-03-12T23:04:11.672Z,100162.06
2024-03-12T23:06:44.535Z,100166.38
2024-03-12T23:09:18.731Z,100157.50
2024-03-12T23:11:48.444Z,100160.94
2024-03-12T23:14:22.638Z,100160.03
2024-03-12T23:16:52.554Z,100157.34
2024-03-12T23:19:23.043Z,100150.22
2024-03-12T23:21:53.253Z,100155.47
2024-03-12T23:24:24.306Z,100156.19
2024-03-12T23:26:56.240Z,100152.72
2024-03-12T23:29:29.154Z,100155.34
2024-03-12T23:31:58.940Z,100155.34
2024-03-12T23:34:29.083Z,100157.94
2024-03-12T23:37:00.314Z,100151.81
2024-03-12T23:39:30.407Z,100156.13
2024-03-12T23:42:01.321Z,100145.66
2024-03-12T23:44:36.467Z,100150.94
2024-03-12T23:47:08.725Z,100147.44
2024-03-12T23:49:40.483Z,100156.13
2024-03-12T23:52:12.383Z,100154.38
2024-03-12T23:54:42.782Z,100160.50
2024-03-12T23:57:13.996Z,100155.22
2024-03-12T23:59:46.545Z,100153.38
